createdAt,value
2022-12-01T00:01:47.795Z,100.00
2022-12-01T00:04:17.181Z,100.00
2022-12-01T00:06:47.044Z,100.00
2022-12-01T00:09:35.478Z,100.00
2022-12-01T00:12:04.811Z,100.00
2022-12-01T00:14:34.066Z,100.00
2022-12-01T00:17:05.102Z,100.00
2022-12-01T00:19:34.392Z,100.00
2022-12-01T00:22:03.648Z,100.00
2022-12-01T00:24:34.871Z,100.00
2022-12-01T00:27:04.142Z,100.00
2022-12-01T00:29:33.396Z,100.00
2022-12-01T00:32:02.764Z,100.00
2022-12-01T00:34:32.166Z,100.00
2022-12-01T00:37:01.911Z,100.00
2022-12-01T00:39:31.439Z,100.00
2022-12-01T00:42:02.134Z,100.00
2022-12-01T00:44:31.874Z,100.00
2022-12-01T00:47:01.155Z,100.00
2022-12-01T00:49:30.404Z,100.00
2022-12-01T00:51:59.725Z,100.00
2022-12-01T00:54:32.291Z,100.00
2022-12-01T00:57:03.283Z,100.00
2022-12-01T00:59:32.817Z,100.00
2022-12-01T01:02:02.662Z,100.00
2022-12-01T01:04:33.064Z,100.00
2022-12-01T01:07:02.810Z,100.00
2022-12-01T01:09:33.596Z,100.00
2022-12-01T01:12:04.368Z,100.00
2022-12-01T01:14:33.674Z,100.00
2022-12-01T01:17:03.117Z,100.00
2022-12-01T01:19:32.387Z,100.00
2022-12-01T01:22:01.773Z,100.00
2022-12-01T01:24:31.234Z,100.00
2022-12-01T01:27:00.534Z,100.00
2022-12-01T01:29:31.213Z,100.00
2022-12-01T01:32:00.450Z,100.00
2022-12-01T01:34:29.793Z,100.00
2022-12-01T01:36:59.026Z,100.00
2022-12-01T01:39:28.334Z,100.00
2022-12-01T01:41:57.544Z,100.00
2022-12-01T01:44:50.871Z,100.00
2022-12-01T01:47:24.670Z,100.00
2022-12-01T01:49:55.657Z,100.00
2022-12-01T01:52:25.432Z,100.00
2022-12-01T01:54:57.093Z,100.00
2022-12-01T01:57:30.227Z,100.00
2022-12-01T02:00:05.344Z,100.00
2022-12-01T02:02:44.928Z,100.00
2022-12-01T02:05:18.727Z,100.00
2022-12-01T02:07:49.459Z,100.00
2022-12-01T02:10:22.783Z,100.00
2022-12-01T02:13:05.038Z,100.00
2022-12-01T02:15:42.464Z,100.00
2022-12-01T02:18:24.977Z,100.00
2022-12-01T02:21:21.072Z,100.00
2022-12-01T02:24:27.680Z,100.00
2022-12-01T02:27:03.940Z,100.00
2022-12-01T02:30:10.510Z,100.00
2022-12-01T02:33:06.290Z,100.00
2022-12-01T02:35:42.815Z,100.00
2022-12-01T02:38:18.471Z,100.00
2022-12-01T02:40:53.794Z,100.00
2022-12-01T02:43:31.577Z,100.00
2022-12-01T02:46:07.147Z,100.00
2022-12-01T02:48:41.618Z,100.00
2022-12-01T02:51:15.819Z,100.00
2022-12-01T02:53:45.617Z,100.00
2022-12-01T02:56:16.228Z,100.00
2022-12-01T02:58:45.595Z,100.00
2022-12-01T03:01:33.903Z,100.00
2022-12-01T03:04:25.620Z,100.00
2022-12-01T03:07:15.636Z,100.00
2022-12-01T03:09:56.483Z,100.00
2022-12-01T03:12:35.755Z,100.00
2022-12-01T03:15:11.427Z,100.00
2022-12-01T03:17:46.659Z,100.00
2022-12-01T03:20:24.242Z,100.00
2022-12-01T03:22:59.510Z,100.00
2022-12-01T03:25:31.478Z,100.00
2022-12-01T03:30:56.870Z,100.00
2022-12-01T03:33:32.992Z,100.00
2022-12-01T03:36:09.331Z,100.00
2022-12-01T03:38:40.286Z,100.00
2022-12-01T03:41:16.051Z,100.00
2022-12-01T03:43:54.024Z,100.00
2022-12-01T03:46:33.194Z,100.00
2022-12-01T03:49:03.942Z,100.00
2022-12-01T03:51:43.459Z,100.00
2022-12-01T03:54:19.760Z,100.00
2022-12-01T03:56:52.610Z,100.00
2022-12-01T03:59:25.407Z,100.00
2022-12-01T04:01:54.742Z,100.00
2022-12-01T04:04:24.050Z,100.00
2022-12-01T04:06:54.829Z,100.00
2022-12-01T04:09:24.124Z,100.00
2022-12-01T04:12:10.960Z,100.00
2022-12-01T04:14:40.202Z,100.00
2022-12-01T04:17:09.622Z,100.00
2022-12-01T04:19:38.974Z,100.00
2022-12-01T04:22:09.598Z,100.00
2022-12-01T04:24:39.226Z,100.00
2022-12-01T04:27:08.570Z,100.00
2022-12-01T04:29:37.957Z,100.00
2022-12-01T04:32:07.310Z,100.00
2022-12-01T04:34:36.553Z,100.00
2022-12-01T04:37:07.623Z,100.00
2022-12-01T04:39:38.443Z,100.00
2022-12-01T04:42:07.732Z,100.00
2022-12-01T04:44:37.387Z,100.00
2022-12-01T04:47:07.807Z,100.00
2022-12-01T04:49:37.509Z,100.00
2022-12-01T04:52:07.704Z,100.00
2022-12-01T04:54:38.460Z,100.00
2022-12-01T04:57:07.722Z,100.00
2022-12-01T04:59:36.958Z,100.00
2022-12-01T05:02:06.287Z,100.00
2022-12-01T05:04:38.832Z,100.00
2022-12-01T05:07:08.339Z,100.00
2022-12-01T05:09:39.328Z,100.00
2022-12-01T05:12:08.775Z,100.00
2022-12-01T05:14:38.033Z,100.00
2022-12-01T05:17:07.317Z,100.00
2022-12-01T05:19:54.048Z,100.00
2022-12-01T05:22:56.913Z,100.00
2022-12-01T05:25:14.321Z,100.00
2022-12-01T05:27:43.800Z,100.00
2022-12-01T05:30:13.812Z,100.00
2022-12-01T05:32:43.155Z,100.00
2022-12-01T05:35:13.007Z,100.00
2022-12-01T05:37:42.409Z,100.00
2022-12-01T05:40:14.195Z,100.00
2022-12-01T05:42:43.511Z,100.00
2022-12-01T05:45:13.028Z,100.00
2022-12-01T05:47:42.306Z,100.00
2022-12-01T05:50:12.342Z,100.00
2022-12-01T05:52:42.082Z,100.00
2022-12-01T05:55:11.699Z,100.00
2022-12-01T05:57:43.239Z,100.00
2022-12-01T06:00:14.619Z,100.00
2022-12-01T06:02:43.910Z,100.00
2022-12-01T06:05:13.243Z,100.00
2022-12-01T06:07:42.764Z,100.00
2022-12-01T06:10:13.038Z,100.00
2022-12-01T06:12:43.801Z,100.00
2022-12-01T06:15:14.277Z,100.00
2022-12-01T06:17:43.810Z,100.00
2022-12-01T06:20:14.070Z,100.00
2022-12-01T06:22:43.500Z,100.00
2022-12-01T06:25:12.918Z,99.17
2022-12-01T06:27:43.631Z,98.93
2022-12-01T06:30:13.408Z,100.00
2022-12-01T06:32:42.735Z,100.00
2022-12-01T06:35:12.003Z,100.00
2022-12-01T06:37:41.267Z,100.00
2022-12-01T06:40:11.871Z,100.00
2022-12-01T06:42:41.717Z,100.00
2022-12-01T06:45:13.324Z,100.00
2022-12-01T06:47:42.611Z,100.00
2022-12-01T06:50:12.503Z,100.00
2022-12-01T06:52:41.767Z,100.00
2022-12-01T06:55:11.350Z,100.00
2022-12-01T06:57:40.907Z,100.00
2022-12-01T07:00:14.122Z,100.00
2022-12-01T07:02:43.932Z,100.00
2022-12-01T07:05:13.453Z,100.00
2022-12-01T07:07:42.853Z,100.00
2022-12-01T07:10:14.166Z,100.00
2022-12-01T07:12:43.440Z,100.00
2022-12-01T07:15:14.276Z,100.00
2022-12-01T07:17:43.530Z,100.00
2022-12-01T07:20:14.112Z,100.00
2022-12-01T07:22:44.294Z,100.00
2022-12-01T07:25:14.067Z,100.00
2022-12-01T07:27:43.429Z,100.00
2022-12-01T07:30:14.841Z,100.00
2022-12-01T07:32:44.328Z,100.00
2022-12-01T07:35:13.677Z,100.00
2022-12-01T07:37:43.001Z,100.00
2022-12-01T07:40:14.197Z,100.00
2022-12-01T07:42:43.661Z,100.00
2022-12-01T07:45:14.572Z,99.08
2022-12-01T07:47:44.727Z,99.32
2022-12-01T07:50:14.172Z,100.00
2022-12-01T07:52:43.445Z,100.00
2022-12-01T07:55:12.709Z,100.00
2022-12-01T07:57:42.034Z,100.00
2022-12-01T08:00:14.165Z,100.00
2022-12-01T08:02:43.531Z,100.00
2022-12-01T08:05:12.950Z,100.00
2022-12-01T08:07:42.349Z,100.00
2022-12-01T08:10:12.649Z,96.86
2022-12-01T08:12:41.968Z,99.17
2022-12-01T08:15:13.379Z,99.87
2022-12-01T08:17:42.691Z,99.79
2022-12-01T08:20:12.860Z,100.00
2022-12-01T08:22:42.231Z,97.66
2022-12-01T08:25:11.960Z,97.43
2022-12-01T08:27:41.689Z,97.20
2022-12-01T08:30:11.991Z,97.28
2022-12-01T08:32:42.716Z,95.23
2022-12-01T08:35:12.236Z,95.61
2022-12-01T08:37:41.642Z,95.19
2022-12-01T08:40:11.514Z,95.62
2022-12-01T08:42:40.860Z,94.09
2022-12-01T08:45:11.596Z,94.94
2022-12-01T08:47:42.639Z,95.49
2022-12-01T08:50:12.350Z,96.08
2022-12-01T08:52:41.680Z,96.21
2022-12-01T08:55:11.441Z,96.04
2022-12-01T08:57:40.758Z,95.74
2022-12-01T09:00:11.075Z,95.95
2022-12-01T09:02:40.566Z,96.93
2022-12-01T09:05:11.579Z,95.97
2022-12-01T09:07:41.313Z,95.46
2022-12-01T09:10:11.542Z,96.00
2022-12-01T09:12:41.020Z,95.79
2022-12-01T09:15:11.040Z,97.26
2022-12-01T09:17:40.520Z,96.23
2022-12-01T09:20:12.505Z,93.82
2022-12-01T09:22:41.770Z,94.30
2022-12-01T09:25:14.892Z,94.33
2022-12-01T09:27:44.315Z,94.69
2022-12-01T09:30:14.631Z,94.04
2022-12-01T09:32:43.974Z,93.79
2022-12-01T09:35:14.799Z,93.63
2022-12-01T09:37:44.297Z,91.51
2022-12-01T09:40:16.766Z,90.19
2022-12-01T09:42:48.918Z,92.22
2022-12-01T09:45:26.625Z,88.54
2022-12-01T09:47:59.151Z,86.97
2022-12-01T09:50:31.590Z,89.06
2022-12-01T09:53:05.038Z,86.90
2022-12-01T09:55:36.924Z,87.35
2022-12-01T09:58:06.801Z,87.22
2022-12-01T10:00:43.110Z,87.65
2022-12-01T10:03:23.389Z,86.61
2022-12-01T10:06:26.229Z,86.28
2022-12-01T10:08:56.445Z,84.53
2022-12-01T10:11:35.997Z,84.38
2022-12-01T10:14:05.803Z,83.52
2022-12-01T10:16:39.769Z,84.66
2022-12-01T10:19:15.142Z,88.42
2022-12-01T10:22:02.300Z,89.39
2022-12-01T10:24:46.419Z,90.97
2022-12-01T10:27:26.661Z,92.77
2022-12-01T10:30:03.458Z,91.78
2022-12-01T10:32:42.188Z,93.28
2022-12-01T10:35:16.687Z,92.23
2022-12-01T10:37:49.004Z,91.78
2022-12-01T10:40:19.514Z,90.84
2022-12-01T10:42:50.389Z,90.36
2022-12-01T10:45:23.986Z,90.21
2022-12-01T10:48:11.578Z,89.45
2022-12-01T10:50:41.213Z,90.04
2022-12-01T10:53:27.901Z,90.12
2022-12-01T10:56:06.270Z,90.32
2022-12-01T10:58:42.102Z,90.15
2022-12-01T11:01:19.354Z,91.17
2022-12-01T11:03:53.927Z,91.38
2022-12-01T11:06:25.960Z,89.26
2022-12-01T11:08:59.170Z,85.81
2022-12-01T11:11:33.281Z,86.65
2022-12-01T11:14:05.500Z,86.10
2022-12-01T11:16:41.351Z,84.58
2022-12-01T11:19:31.024Z,84.17
2022-12-01T11:22:01.856Z,84.52
2022-12-01T11:24:43.286Z,84.94
2022-12-01T11:27:18.712Z,83.68
2022-12-01T11:29:51.159Z,83.70
2022-12-01T11:32:25.558Z,83.47
2022-12-01T11:34:58.560Z,83.49
2022-12-01T11:37:32.967Z,84.71
2022-12-01T11:40:18.211Z,85.80
2022-12-01T11:42:51.088Z,85.76
2022-12-01T11:45:30.427Z,86.74
2022-12-01T11:48:03.151Z,87.02
2022-12-01T11:50:34.833Z,87.33
2022-12-01T11:53:05.499Z,87.59
2022-12-01T11:55:36.351Z,89.36
2022-12-01T11:58:05.928Z,89.64
2022-12-01T12:00:45.257Z,89.16
2022-12-01T12:03:25.238Z,90.07
2022-12-01T12:06:39.527Z,90.14
2022-12-01T12:09:44.927Z,88.87
2022-12-01T12:12:29.061Z,89.42
2022-12-01T12:15:07.328Z,89.18
2022-12-01T12:18:08.647Z,89.18
2022-12-01T12:20:50.935Z,89.67
2022-12-01T12:23:42.147Z,89.22
2022-12-01T12:26:17.689Z,88.54
2022-12-01T12:29:00.887Z,87.85
2022-12-01T12:31:41.077Z,86.78
2022-12-01T12:34:23.092Z,87.47
2022-12-01T12:37:02.570Z,86.32
2022-12-01T12:39:48.105Z,85.73
2022-12-01T12:42:26.740Z,86.27
2022-12-01T12:45:06.586Z,85.52
2022-12-01T12:47:51.330Z,86.76
2022-12-01T12:50:28.771Z,85.54
2022-12-01T12:53:03.774Z,85.96
2022-12-01T12:55:38.728Z,86.87
2022-12-01T12:58:15.930Z,86.93
2022-12-01T13:00:52.590Z,86.52
2022-12-01T13:03:33.761Z,86.27
2022-12-01T13:06:08.374Z,87.56
2022-12-01T13:08:48.089Z,86.56
2022-12-01T13:11:23.664Z,87.04
2022-12-01T13:14:00.086Z,86.18
2022-12-01T13:16:36.502Z,86.11
2022-12-01T13:19:12.982Z,86.42
2022-12-01T13:21:45.497Z,86.09
2022-12-01T13:24:22.806Z,85.44
2022-12-01T13:26:56.763Z,85.43
2022-12-01T13:29:38.422Z,84.54
2022-12-01T13:32:30.561Z,85.44
2022-12-01T13:35:01.216Z,85.57
2022-12-01T13:37:33.270Z,85.48
2022-12-01T13:40:22.366Z,85.86
2022-12-01T13:43:05.470Z,84.78
2022-12-01T13:45:39.854Z,86.62
2022-12-01T13:48:29.268Z,84.96
2022-12-01T13:51:01.859Z,86.43
2022-12-01T13:53:36.203Z,86.40
2022-12-01T13:56:23.229Z,86.95
2022-12-01T13:58:54.579Z,85.51
2022-12-01T14:01:46.340Z,86.22
2022-12-01T14:04:31.684Z,87.02
2022-12-01T14:07:38.802Z,88.05
2022-12-01T14:10:24.420Z,87.59
2022-12-01T14:12:56.941Z,86.52
2022-12-01T14:15:42.824Z,85.55
2022-12-01T14:18:45.121Z,86.05
2022-12-01T14:21:16.069Z,87.92
2022-12-01T14:24:02.380Z,86.21
2022-12-01T14:26:32.360Z,86.40
2022-12-01T14:29:26.488Z,86.61
2022-12-01T14:32:25.606Z,88.16
2022-12-01T14:35:01.732Z,87.34
2022-12-01T14:37:40.851Z,86.46
2022-12-01T14:40:18.535Z,87.91
2022-12-01T14:43:09.710Z,85.59
2022-12-01T14:45:44.162Z,86.96
2022-12-01T14:48:17.201Z,88.47
2022-12-01T14:50:53.271Z,86.11
2022-12-01T14:53:28.238Z,87.29
2022-12-01T14:56:01.322Z,87.22
2022-12-01T14:58:32.438Z,87.92
2022-12-01T15:01:07.802Z,86.94
2022-12-01T15:03:40.990Z,86.99
2022-12-01T15:06:11.512Z,87.30
2022-12-01T15:08:53.171Z,88.03
2022-12-01T15:11:26.086Z,88.11
2022-12-01T15:13:56.441Z,88.52
2022-12-01T15:16:27.603Z,88.57
2022-12-01T15:18:57.069Z,87.07
2022-12-01T15:21:28.823Z,87.24
2022-12-01T15:24:01.903Z,88.76
2022-12-01T15:26:33.370Z,89.31
2022-12-01T15:29:15.072Z,87.87
2022-12-01T15:31:46.331Z,87.58
2022-12-01T15:34:18.760Z,89.37
2022-12-01T15:36:49.711Z,89.38
2022-12-01T15:39:22.810Z,89.25
2022-12-01T15:41:54.349Z,89.14
2022-12-01T15:44:29.279Z,89.15
2022-12-01T15:46:58.945Z,90.65
2022-12-01T15:49:33.080Z,90.61
2022-12-01T15:52:08.895Z,90.69
2022-12-01T15:54:40.649Z,91.55
2022-12-01T15:57:09.961Z,93.61
2022-12-01T15:59:42.103Z,95.02
2022-12-01T16:02:27.192Z,94.92
2022-12-01T16:05:05.788Z,95.52
2022-12-01T16:08:11.595Z,95.17
2022-12-01T16:10:32.732Z,95.65
2022-12-01T16:13:54.030Z,95.59
2022-12-01T16:16:32.407Z,95.42
2022-12-01T16:19:04.190Z,95.83
2022-12-01T16:21:46.718Z,95.54
2022-12-01T16:24:19.369Z,95.60
2022-12-01T16:26:53.791Z,95.21
2022-12-01T16:29:24.481Z,95.29
2022-12-01T16:34:46.589Z,95.47
2022-12-01T16:37:17.027Z,95.26
2022-12-01T16:39:46.534Z,94.42
2022-12-01T16:42:20.793Z,95.94
2022-12-01T16:44:51.455Z,95.57
2022-12-01T16:47:23.086Z,95.30
2022-12-01T16:49:53.380Z,95.77
2022-12-01T16:52:43.667Z,94.98
2022-12-01T16:55:37.755Z,95.27
2022-12-01T16:58:08.573Z,94.72
2022-12-01T17:00:37.886Z,92.55
2022-12-01T17:03:08.414Z,92.09
2022-12-01T17:05:38.678Z,92.54
2022-12-01T17:08:08.150Z,91.79
2022-12-01T17:10:40.891Z,93.19
2022-12-01T17:13:12.284Z,92.33
2022-12-01T17:15:42.601Z,92.64
2022-12-01T17:18:12.851Z,95.21
2022-12-01T17:20:42.368Z,93.56
2022-12-01T17:23:12.627Z,93.60
2022-12-01T17:25:42.259Z,94.26
2022-12-01T17:28:12.977Z,95.51
2022-12-01T17:30:43.147Z,94.97
2022-12-01T17:33:12.473Z,94.82
2022-12-01T17:35:41.800Z,95.00
2022-12-01T17:38:11.562Z,94.32
2022-12-01T17:40:40.882Z,95.43
2022-12-01T17:43:10.605Z,96.46
2022-12-01T17:45:42.215Z,96.59
2022-12-01T17:48:11.769Z,97.38
2022-12-01T17:50:41.052Z,95.34
2022-12-01T17:53:10.328Z,95.93
2022-12-01T17:55:40.722Z,96.27
2022-12-01T17:58:10.210Z,97.59
2022-12-01T18:00:41.051Z,97.96
2022-12-01T18:03:10.560Z,98.17
2022-12-01T18:05:40.432Z,98.33
2022-12-01T18:08:10.033Z,98.63
2022-12-01T18:10:39.428Z,97.69
2022-12-01T18:13:09.110Z,97.94
2022-12-01T18:15:41.783Z,98.27
2022-12-01T18:18:11.263Z,98.08
2022-12-01T18:20:42.782Z,98.03
2022-12-01T18:23:12.889Z,96.92
2022-12-01T18:25:42.262Z,97.69
2022-12-01T18:28:11.680Z,97.67
2022-12-01T18:30:42.621Z,97.11
2022-12-01T18:33:13.470Z,98.19
2022-12-01T18:35:44.827Z,96.87
2022-12-01T18:38:14.730Z,97.01
2022-12-01T18:40:44.067Z,96.79
2022-12-01T18:43:13.514Z,96.56
2022-12-01T18:45:44.347Z,97.37
2022-12-01T18:48:13.659Z,96.28
2022-12-01T18:50:43.001Z,96.90
2022-12-01T18:53:12.498Z,95.68
2022-12-01T18:55:41.926Z,94.05
2022-12-01T18:58:11.530Z,93.12
2022-12-01T19:00:41.001Z,94.03
2022-12-01T19:03:12.100Z,92.02
2022-12-01T19:05:42.263Z,91.54
2022-12-01T19:08:12.740Z,90.60
2022-12-01T19:10:43.420Z,92.17
2022-12-01T19:13:13.874Z,93.31
2022-12-01T19:15:44.982Z,93.77
2022-12-01T19:18:16.948Z,94.37
2022-12-01T19:20:48.098Z,94.62
2022-12-01T19:23:19.660Z,95.13
2022-12-01T19:25:50.126Z,94.95
2022-12-01T19:28:22.981Z,96.59
2022-12-01T19:30:54.518Z,96.79
2022-12-01T19:33:26.475Z,96.22
2022-12-01T19:35:56.892Z,96.41
2022-12-01T19:38:28.789Z,97.39
2022-12-01T19:40:59.144Z,97.35
2022-12-01T19:43:29.745Z,97.73
2022-12-01T19:46:00.402Z,97.69
2022-12-01T19:48:32.221Z,97.23
2022-12-01T19:51:02.129Z,97.77
2022-12-01T19:53:33.869Z,97.60
2022-12-01T19:56:05.279Z,97.35
2022-12-01T19:58:35.498Z,97.25
2022-12-01T20:01:06.635Z,97.03
2022-12-01T20:03:41.349Z,97.06
2022-12-01T20:06:14.791Z,98.92
2022-12-01T20:08:45.391Z,98.42
2022-12-01T20:11:16.270Z,98.77
2022-12-01T20:13:50.652Z,98.86
2022-12-01T20:16:23.967Z,99.74
2022-12-01T20:18:56.509Z,99.30
2022-12-01T20:21:28.700Z,99.98
2022-12-01T20:24:01.061Z,99.92
2022-12-01T20:26:35.057Z,100.00
2022-12-01T20:29:08.145Z,100.00
2022-12-01T20:31:40.608Z,100.00
2022-12-01T20:34:16.570Z,100.00
2022-12-01T20:36:47.073Z,100.00
2022-12-01T20:39:18.100Z,100.00
2022-12-01T20:41:49.736Z,100.00
2022-12-01T20:44:20.820Z,100.00
2022-12-01T20:46:51.152Z,100.00
2022-12-01T20:49:23.201Z,100.00
2022-12-01T20:51:53.850Z,100.00
2022-12-01T20:54:28.883Z,100.00
2022-12-01T20:57:00.249Z,100.00
2022-12-01T20:59:30.211Z,100.00
2022-12-01T21:01:59.624Z,100.00
2022-12-01T21:04:30.513Z,100.00
2022-12-01T21:06:59.905Z,100.00
2022-12-01T21:09:29.334Z,100.00
2022-12-01T21:12:18.104Z,100.00
2022-12-01T21:14:54.772Z,100.00
2022-12-01T21:17:34.461Z,100.00
2022-12-01T21:20:18.261Z,100.00
2022-12-01T21:22:47.781Z,100.00
2022-12-01T21:25:20.910Z,100.00
2022-12-01T21:27:51.142Z,100.00
2022-12-01T21:30:22.379Z,100.00
2022-12-01T21:32:51.820Z,100.00
2022-12-01T21:35:24.997Z,100.00
2022-12-01T21:38:01.793Z,100.00
2022-12-01T21:40:31.911Z,100.00
2022-12-01T21:43:13.910Z,100.00
2022-12-01T21:45:43.268Z,100.00
2022-12-01T21:48:17.221Z,100.00
2022-12-01T21:50:52.360Z,100.00
2022-12-01T21:53:26.257Z,100.00
2022-12-01T21:55:58.005Z,100.00
2022-12-01T21:58:30.221Z,100.00
2022-12-01T22:01:01.028Z,100.00
2022-12-01T22:03:33.173Z,100.00
2022-12-01T22:06:29.184Z,100.00
2022-12-01T22:09:02.470Z,100.00
2022-12-01T22:11:32.927Z,100.00
2022-12-01T22:14:12.618Z,100.00
2022-12-01T22:16:44.060Z,100.00
2022-12-01T22:19:26.469Z,100.00
2022-12-01T22:22:01.881Z,100.00
2022-12-01T22:24:38.631Z,100.00
2022-12-01T22:27:20.388Z,100.00
2022-12-01T22:29:52.391Z,99.40
2022-12-01T22:32:37.502Z,98.42
2022-12-01T22:35:36.208Z,98.80
2022-12-01T22:38:21.748Z,100.00
2022-12-01T22:40:58.236Z,100.00
2022-12-01T22:43:43.864Z,100.00
2022-12-01T22:46:25.173Z,100.00
2022-12-01T22:48:56.241Z,100.00
2022-12-01T22:51:37.595Z,100.00
2022-12-01T22:54:39.129Z,100.00
2022-12-01T22:57:25.558Z,100.00
2022-12-01T22:59:55.460Z,97.77
2022-12-01T23:02:28.602Z,97.33
2022-12-01T23:05:00.388Z,98.01
2022-12-01T23:07:32.114Z,99.59
2022-12-01T23:10:09.389Z,100.00
2022-12-01T23:12:39.069Z,97.33
2022-12-01T23:15:31.157Z,98.27
2022-12-01T23:18:07.011Z,100.00
2022-12-01T23:20:36.681Z,99.87
2022-12-01T23:23:09.786Z,100.00
2022-12-01T23:25:41.891Z,100.00
2022-12-01T23:28:12.776Z,100.00
2022-12-01T23:30:44.323Z,100.00
2022-12-01T23:33:20.115Z,100.00
2022-12-01T23:35:54.839Z,100.00
2022-12-01T23:38:27.490Z,99.79
2022-12-01T23:41:01.053Z,99.86
2022-12-01T23:43:33.309Z,98.46
2022-12-01T23:46:06.509Z,99.76
2022-12-01T23:48:39.158Z,100.00
2022-12-01T23:51:16.568Z,100.00
2022-12-01T23:53:46.165Z,100.00
2022-12-01T23:56:20.502Z,99.53
2022-12-01T23:58:50.639Z,100.00
